sensor_id;sensor_type;location;lat;lon;timestamp;pressure;altitude;pressure_sealevel;temperature;humidity
21960;BME280;11144;43.030;25.108;2022-08-21T00:00:03;98689.19;;;20.71;100.00
21960;BME280;11144;43.030;25.108;2022-08-21T00:01:42;98680.69;;;20.66;100.00
21960;BME280;11144;43.030;25.108;2022-08-21T00:03:15;98682.66;;;20.64;100.00
21960;BME280;11144;43.030;25.108;2022-08-21T00:04:49;98661.44;;;20.61;100.00
21960;BME280;11144;43.030;25.108;2022-08-21T00:06:28;98642.16;;;20.56;100.00
21960;BME280;11144;43.030;25.108;2022-08-21T00:08:03;98632.28;;;20.56;100.00
21960;BME280;11144;43.030;25.108;2022-08-21T00:09:36;98622.91;;;20.51;100.00
21960;BME280;11144;43.030;25.108;2022-08-21T00:11:10;98618.66;;;20.48;100.00
21960;BME280;11144;43.030;25.108;2022-08-21T00:12:44;98619.78;;;20.46;100.00
21960;BME280;11144;43.030;25.108;2022-08-21T00:14:17;98602.94;;;20.44;100.00
21960;BME280;11144;43.030;25.108;2022-08-21T00:15:50;98598.56;;;20.43;100.00
21960;BME280;11144;43.030;25.108;2022-08-21T00:17:24;98592.19;;;20.44;100.00
21960;BME280;11144;43.030;25.108;2022-08-21T00:18:56;98596.41;;;20.37;100.00
21960;BME280;11144;43.030;25.108;2022-08-21T00:20:30;98610.56;;;20.39;100.00
21960;BME280;11144;43.030;25.108;2022-08-21T00:22:03;98609.56;;;20.40;100.00
21960;BME280;11144;43.030;25.108;2022-08-21T00:23:39;98601.94;;;20.45;100.00
21960;BME280;11144;43.030;25.108;2022-08-21T00:25:13;98598.56;;;20.43;100.00
21960;BME280;11144;43.030;25.108;2022-08-21T00:26:50;98592.94;;;20.46;100.00
21960;BME280;11144;43.030;25.108;2022-08-21T00:28:24;98582.44;;;20.43;100.00
21960;BME280;11144;43.030;25.108;2022-08-21T00:29:57;98575.34;;;20.42;100.00
21960;BME280;11144;43.030;25.108;2022-08-21T00:31:29;98553.56;;;20.35;100.00
21960;BME280;11144;43.030;25.108;2022-08-21T00:33:03;98544.50;;;20.36;100.00
21960;BME280;11144;43.030;25.108;2022-08-21T00:34:38;98537.00;;;20.30;100.00
21960;BME280;11144;43.030;25.108;2022-08-21T00:36:11;98538.03;;;20.39;100.00
21960;BME280;11144;43.030;25.108;2022-08-21T00:37:44;98520.19;;;20.38;100.00
21960;BME280;11144;43.030;25.108;2022-08-21T00:39:19;98502.66;;;20.34;100.00
21960;BME280;11144;43.030;25.108;2022-08-21T00:40:56;98503.81;;;20.41;100.00
21960;BME280;11144;43.030;25.108;2022-08-21T00:42:33;98475.25;;;20.40;100.00
21960;BME280;11144;43.030;25.108;2022-08-21T00:44:09;98493.94;;;20.41;100.00
21960;BME280;11144;43.030;25.108;2022-08-21T00:45:44;98494.75;;;20.42;100.00
21960;BME280;11144;43.030;25.108;2022-08-21T00:47:18;98502.41;;;20.46;100.00
21960;BME280;11144;43.030;25.108;2022-08-21T00:48:50;98504.72;;;20.51;100.00
21960;BME280;11144;43.030;25.108;2022-08-21T00:50:32;98493.69;;;20.54;100.00
21960;BME280;11144;43.030;25.108;2022-08-21T00:52:09;98497.53;;;20.61;100.00
21960;BME280;11144;43.030;25.108;2022-08-21T00:53:45;98506.28;;;20.63;100.00
21960;BME280;11144;43.030;25.108;2022-08-21T00:55:26;98503.06;;;20.69;100.00
21960;BME280;11144;43.030;25.108;2022-08-21T00:57:09;98501.06;;;20.71;100.00
21960;BME280;11144;43.030;25.108;2022-08-21T00:58:45;98495.44;;;20.74;100.00
21960;BME280;11144;43.030;25.108;2022-08-21T01:00:28;98491.75;;;20.75;100.00
21960;BME280;11144;43.030;25.108;2022-08-21T01:02:02;98483.13;;;20.81;100.00
21960;BME280;11144;43.030;25.108;2022-08-21T01:03:36;98482.88;;;20.84;100.00
21960;BME280;11144;43.030;25.108;2022-08-21T01:05:15;98471.38;;;20.82;100.00
21960;BME280;11144;43.030;25.108;2022-08-21T01:06:48;98470.25;;;20.84;100.00
21960;BME280;11144;43.030;25.108;2022-08-21T01:08:23;98481.88;;;20.85;100.00
21960;BME280;11144;43.030;25.108;2022-08-21T01:09:57;98491.75;;;20.84;100.00
21960;BME280;11144;43.030;25.108;2022-08-21T01:11:33;98489.78;;;20.86;100.00
21960;BME280;11144;43.030;25.108;2022-08-21T01:13:08;98497.72;;;20.88;100.00
21960;BME280;11144;43.030;25.108;2022-08-21T01:14:42;98501.09;;;20.90;100.00
21960;BME280;11144;43.030;25.108;2022-08-21T01:16:18;98519.13;;;20.99;100.00
21960;BME280;11144;43.030;25.108;2022-08-21T01:17:53;98523.50;;;21.00;100.00
21960;BME280;11144;43.030;25.108;2022-08-21T01:19:27;98527.19;;;20.99;100.00
21960;BME280;11144;43.030;25.108;2022-08-21T01:21:13;98526.94;;;21.02;100.00
21960;BME280;11144;43.030;25.108;2022-08-21T01:22:47;98532.31;;;21.02;100.00
21960;BME280;11144;43.030;25.108;2022-08-21T01:24:20;98523.97;;;21.05;100.00
21960;BME280;11144;43.030;25.108;2022-08-21T01:25:54;98525.22;;;21.01;100.00
21960;BME280;11144;43.030;25.108;2022-08-21T01:27:27;98531.31;;;21.03;100.00
21960;BME280;11144;43.030;25.108;2022-08-21T01:29:07;98529.34;;;21.05;100.00
21960;BME280;11144;43.030;25.108;2022-08-21T01:30:43;98547.31;;;21.04;100.00
21960;BME280;11144;43.030;25.108;2022-08-21T01:32:18;98527.75;;;21.02;100.00
21960;BME280;11144;43.030;25.108;2022-08-21T01:33:53;98539.66;;;21.00;100.00
21960;BME280;11144;43.030;25.108;2022-08-21T01:35:27;98541.34;;;21.01;100.00
21960;BME280;11144;43.030;25.108;2022-08-21T01:37:02;98540.78;;;20.97;100.00
21960;BME280;11144;43.030;25.108;2022-08-21T01:38:35;98540.22;;;20.94;100.00
21960;BME280;11144;43.030;25.108;2022-08-21T01:40:09;98533.13;;;20.93;100.00
21960;BME280;11144;43.030;25.108;2022-08-21T01:41:43;98535.09;;;20.91;100.00
21960;BME280;11144;43.030;25.108;2022-08-21T01:43:16;98533.94;;;20.84;100.00
21960;BME280;11144;43.030;25.108;2022-08-21T01:44:58;98540.31;;;20.83;100.00
21960;BME280;11144;43.030;25.108;2022-08-21T01:46:32;98539.31;;;20.84;100.00
21960;BME280;11144;43.030;25.108;2022-08-21T01:48:05;98537.31;;;20.86;100.00
21960;BME280;11144;43.030;25.108;2022-08-21T01:49:39;98535.34;;;20.88;100.00
21960;BME280;11144;43.030;25.108;2022-08-21T01:51:13;98529.97;;;20.88;100.00
21960;BME280;11144;43.030;25.108;2022-08-21T01:52:48;98534.22;;;20.90;100.00
21960;BME280;11144;43.030;25.108;2022-08-21T01:54:21;98522.59;;;20.90;100.00
21960;BME280;11144;43.030;25.108;2022-08-21T01:55:55;98534.00;;;20.93;100.00
21960;BME280;11144;43.030;25.108;2022-08-21T01:57:28;98520.41;;;20.95;100.00
21960;BME280;11144;43.030;25.108;2022-08-21T01:59:01;98520.13;;;20.98;100.00
21960;BME280;11144;43.030;25.108;2022-08-21T02:00:35;98514.75;;;20.98;100.00
21960;BME280;11144;43.030;25.108;2022-08-21T02:02:08;98519.84;;;21.01;100.00
21960;BME280;11144;43.030;25.108;2022-08-21T02:03:41;98510.47;;;20.95;100.00
21960;BME280;11144;43.030;25.108;2022-08-21T02:05:14;98518.13;;;21.00;100.00
21960;BME280;11144;43.030;25.108;2022-08-21T02:06:48;98520.56;;;21.03;100.00
21960;BME280;11144;43.030;25.108;2022-08-21T02:08:24;98511.22;;;21.07;100.00
21960;BME280;11144;43.030;25.108;2022-08-21T02:09:57;98517.59;;;21.06;100.00
21960;BME280;11144;43.030;25.108;2022-08-21T02:11:31;98510.53;;;21.05;100.00
21960;BME280;11144;43.030;25.108;2022-08-21T02:13:04;98515.91;;;21.05;100.00
21960;BME280;11144;43.030;25.108;2022-08-21T02:14:44;98513.91;;;21.07;100.00
21960;BME280;11144;43.030;25.108;2022-08-21T02:16:17;98522.69;;;21.09;100.00
21960;BME280;11144;43.030;25.108;2022-08-21T02:17:52;98513.63;;;21.10;100.00
21960;BME280;11144;43.030;25.108;2022-08-21T02:19:25;98498.03;;;21.04;100.00
21960;BME280;11144;43.030;25.108;2022-08-21T02:21:08;98516.31;;;21.10;100.00
21960;BME280;11144;43.030;25.108;2022-08-21T02:22:42;98519.69;;;21.12;100.00
21960;BME280;11144;43.030;25.108;2022-08-21T02:24:15;98525.81;;;21.14;100.00
21960;BME280;11144;43.030;25.108;2022-08-21T02:25:48;98522.38;;;21.12;100.00
21960;BME280;11144;43.030;25.108;2022-08-21T02:27:21;98524.66;;;21.07;100.00
21960;BME280;11144;43.030;25.108;2022-08-21T02:28:58;98520.97;;;21.08;100.00
21960;BME280;11144;43.030;25.108;2022-08-21T02:30:35;98529.75;;;21.10;100.00
21960;BME280;11144;43.030;25.108;2022-08-21T02:32:09;98530.63;;;21.10;100.00
21960;BME280;11144;43.030;25.108;2022-08-21T02:33:46;98524.13;;;21.13;100.00
21960;BME280;11144;43.030;25.108;2022-08-21T02:35:20;98518.72;;;21.13;100.00
21960;BME280;11144;43.030;25.108;2022-08-21T02:36:53;98527.50;;;21.15;100.00
21960;BME280;11144;43.030;25.108;2022-08-21T02:38:33;98531.19;;;21.14;100.00
21960;BME280;11144;43.030;25.108;2022-08-21T02:40:13;98534.59;;;21.16;100.00
21960;BME280;11144;43.030;25.108;2022-08-21T02:41:47;98519.28;;;21.16;100.00
21960;BME280;11144;43.030;25.108;2022-08-21T02:43:22;98517.47;;;21.17;100.00
21960;BME280;11144;43.030;25.108;2022-08-21T02:44:55;98516.47;;;21.18;100.00
21960;BME280;11144;43.030;25.108;2022-08-21T02:46:28;98517.72;;;21.14;100.00
21960;BME280;11144;43.030;25.108;2022-08-21T02:48:05;98521.56;;;21.11;100.00
21960;BME280;11144;43.030;25.108;2022-08-21T02:49:38;98524.38;;;21.10;100.00
21960;BME280;11144;43.030;25.108;2022-08-21T02:51:13;98532.72;;;21.07;100.00
21960;BME280;11144;43.030;25.108;2022-08-21T02:52:49;98538.84;;;21.09;100.00
21960;BME280;11144;43.030;25.108;2022-08-21T02:54:26;98536.97;;;21.09;100.00
21960;BME280;11144;43.030;25.108;2022-08-21T02:56:04;98540.53;;;21.10;100.00
21960;BME280;11144;43.030;25.108;2022-08-21T02:57:37;98535.41;;;21.07;100.00
21960;BME280;11144;43.030;25.108;2022-08-21T02:59:14;98539.38;;;21.03;100.00
21960;BME280;11144;43.030;25.108;2022-08-21T03:00:48;98553.53;;;21.05;100.00
21960;BME280;11144;43.030;25.108;2022-08-21T03:02:20;98544.47;;;21.06;100.00
21960;BME280;11144;43.030;25.108;2022-08-21T03:03:57;98549.88;;;21.06;100.00
21960;BME280;11144;43.030;25.108;2022-08-21T03:05:33;98549.88;;;21.06;100.00
21960;BME280;11144;43.030;25.108;2022-08-21T03:07:06;98536.53;;;20.95;100.00
21960;BME280;11144;43.030;25.108;2022-08-21T03:08:42;98543.34;;;20.99;100.00
21960;BME280;11144;43.030;25.108;2022-08-21T03:10:16;98553.81;;;21.02;100.00
21960;BME280;11144;43.030;25.108;2022-08-21T03:11:53;98550.41;;;21.00;100.00
21960;BME280;11144;43.030;25.108;2022-08-21T03:13:27;98554.38;;;20.96;100.00
21960;BME280;11144;43.030;25.108;2022-08-21T03:15:00;98554.63;;;20.93;100.00
21960;BME280;11144;43.030;25.108;2022-08-21T03:16:33;98556.34;;;20.94;100.00
21960;BME280;11144;43.030;25.108;2022-08-21T03:18:07;98565.38;;;20.93;100.00
21960;BME280;11144;43.030;25.108;2022-08-21T03:19:41;98554.63;;;20.93;100.00
21960;BME280;11144;43.030;25.108;2022-08-21T03:21:14;98551.75;;;20.85;100.00
21960;BME280;11144;43.030;25.108;2022-08-21T03:22:50;98548.38;;;20.83;100.00
21960;BME280;11144;43.030;25.108;2022-08-21T03:24:24;98561.09;;;20.90;100.00
21960;BME280;11144;43.030;25.108;2022-08-21T03:25:57;98569.03;;;20.92;100.00
21960;BME280;11144;43.030;25.108;2022-08-21T03:27:32;98575.69;;;20.88;100.00
21960;BME280;11144;43.030;25.108;2022-08-21T03:29:06;98564.50;;;20.83;100.00
21960;BME280;11144;43.030;25.108;2022-08-21T03:30:39;98560.94;;;20.82;100.00
21960;BME280;11144;43.030;25.108;2022-08-21T03:32:12;98565.94;;;20.87;100.00
21960;BME280;11144;43.030;25.108;2022-08-21T03:33:45;98569.31;;;20.89;100.00
21960;BME280;11144;43.030;25.108;2022-08-21T03:35:19;98571.00;;;20.90;100.00
21960;BME280;11144;43.030;25.108;2022-08-21T03:36:53;98565.38;;;20.93;100.00
21960;BME280;11144;43.030;25.108;2022-08-21T03:38:27;98565.13;;;20.96;100.00
21960;BME280;11144;43.030;25.108;2022-08-21T03:40:02;98572.50;;;21.03;100.00
21960;BME280;11144;43.030;25.108;2022-08-21T03:41:34;98572.19;;;21.06;100.00
21960;BME280;11144;43.030;25.108;2022-08-21T03:43:10;98569.38;;;21.08;100.00
21960;BME280;11144;43.030;25.108;2022-08-21T03:44:43;98576.75;;;21.06;100.00
21960;BME280;11144;43.030;25.108;2022-08-21T03:46:16;98586.09;;;21.02;100.00
21960;BME280;11144;43.030;25.108;2022-08-21T03:47:52;98579.72;;;21.03;100.00
21960;BME280;11144;43.030;25.108;2022-08-21T03:49:25;98576.03;;;21.04;100.00
21960;BME280;11144;43.030;25.108;2022-08-21T03:50:59;98576.75;;;21.06;100.00
21960;BME280;11144;43.030;25.108;2022-08-21T03:52:32;98581.84;;;21.09;100.00
21960;BME280;11144;43.030;25.108;2022-08-21T03:54:04;98572.06;;;21.08;100.00
21960;BME280;11144;43.030;25.108;2022-08-21T03:55:38;98583.28;;;21.13;100.00
21960;BME280;11144;43.030;25.108;2022-08-21T03:57:10;98559.63;;;21.07;100.00
21960;BME280;11144;43.030;25.108;2022-08-21T03:58:45;98581.16;;;21.16;100.00
21960;BME280;11144;43.030;25.108;2022-08-21T04:00:20;98580.31;;;21.16;100.00
21960;BME280;11144;43.030;25.108;2022-08-21T04:01:54;98578.59;;;21.15;100.00
21960;BME280;11144;43.030;25.108;2022-08-21T04:03:28;98582.28;;;21.14;100.00
21960;BME280;11144;43.030;25.108;2022-08-21T04:05:03;98576.19;;;21.12;100.00
21960;BME280;11144;43.030;25.108;2022-08-21T04:06:36;98582.41;;;21.12;100.00
21960;BME280;11144;43.030;25.108;2022-08-21T04:08:09;98577.91;;;21.13;100.00
21960;BME280;11144;43.030;25.108;2022-08-21T04:09:42;98582.56;;;21.11;100.00
21960;BME280;11144;43.030;25.108;2022-08-21T04:11:16;98590.63;;;21.11;100.00
21960;BME280;11144;43.030;25.108;2022-08-21T04:12:49;98586.78;;;21.13;100.00
21960;BME280;11144;43.030;25.108;2022-08-21T04:14:23;98576.91;;;21.14;100.00
21960;BME280;11144;43.030;25.108;2022-08-21T04:15:57;98583.56;;;21.19;100.00
21960;BME280;11144;43.030;25.108;2022-08-21T04:17:30;98577.06;;;21.22;100.00
21960;BME280;11144;43.030;25.108;2022-08-21T04:19:03;98584.13;;;21.23;100.00
21960;BME280;11144;43.030;25.108;2022-08-21T04:20:37;98582.16;;;21.25;100.00
21960;BME280;11144;43.030;25.108;2022-08-21T04:22:11;98576.50;;;21.28;100.00
21960;BME280;11144;43.030;25.108;2022-08-21T04:23:44;98576.06;;;21.32;100.00
21960;BME280;11144;43.030;25.108;2022-08-21T04:25:19;98565.16;;;21.34;100.00
21960;BME280;11144;43.030;25.108;2022-08-21T04:26:51;98563.47;;;21.33;100.00
21960;BME280;11144;43.030;25.108;2022-08-21T04:28:26;98563.19;;;21.36;100.00
21960;BME280;11144;43.030;25.108;2022-08-21T04:30:04;98570.28;;;21.37;100.00
21960;BME280;11144;43.030;25.108;2022-08-21T04:31:37;98570.41;;;21.45;100.00
21960;BME280;11144;43.030;25.108;2022-08-21T04:33:11;98579.63;;;21.52;100.00
21960;BME280;11144;43.030;25.108;2022-08-21T04:34:44;98585.13;;;21.60;100.00
21960;BME280;11144;43.030;25.108;2022-08-21T04:36:17;98587.84;;;21.69;100.00
21960;BME280;11144;43.030;25.108;2022-08-21T04:37:56;98588.31;;;21.74;100.00
21960;BME280;11144;43.030;25.108;2022-08-21T04:39:29;98593.28;;;21.79;100.00
21960;BME280;11144;43.030;25.108;2022-08-21T04:41:01;98597.66;;;21.80;100.00
21960;BME280;11144;43.030;25.108;2022-08-21T04:42:42;98596.38;;;21.84;100.00
21960;BME280;11144;43.030;25.108;2022-08-21T04:44:16;98604.59;;;21.82;100.00
21960;BME280;11144;43.030;25.108;2022-08-21T04:45:51;98599.47;;;21.89;100.00
21960;BME280;11144;43.030;25.108;2022-08-21T04:47:24;98600.06;;;21.92;100.00
21960;BME280;11144;43.030;25.108;2022-08-21T04:49:18;98596.34;;;21.93;100.00
21960;BME280;11144;43.030;25.108;2022-08-21T04:50:54;98592.13;;;21.91;100.00
21960;BME280;11144;43.030;25.108;2022-08-21T04:52:29;98577.66;;;21.82;100.00
21960;BME280;11144;43.030;25.108;2022-08-21T04:54:07;98587.88;;;21.88;100.00
21960;BME280;11144;43.030;25.108;2022-08-21T04:55:43;98591.00;;;21.84;100.00
21960;BME280;11144;43.030;25.108;2022-08-21T04:57:17;98598.34;;;21.82;100.00
21960;BME280;11144;43.030;25.108;2022-08-21T04:58:53;98596.38;;;21.84;100.00
21960;BME280;11144;43.030;25.108;2022-08-21T05:00:29;98609.97;;;21.82;100.00
21960;BME280;11144;43.030;25.108;2022-08-21T05:02:05;98609.44;;;21.79;100.00
21960;BME280;11144;43.030;25.108;2022-08-21T05:03:38;98608.00;;;21.75;100.00
21960;BME280;11144;43.030;25.108;2022-08-21T05:05:13;98611.66;;;21.74;100.00
21960;BME280;11144;43.030;25.108;2022-08-21T05:06:47;98611.09;;;21.70;100.00
21960;BME280;11144;43.030;25.108;2022-08-21T05:08:23;98608.25;;;21.62;100.00
21960;BME280;11144;43.030;25.108;2022-08-21T05:09:59;98613.19;;;21.67;100.00
21960;BME280;11144;43.030;25.108;2022-08-21T05:11:33;98608.41;;;21.61;100.00
21960;BME280;11144;43.030;25.108;2022-08-21T05:13:07;98608.53;;;21.59;100.00
21960;BME280;11144;43.030;25.108;2022-08-21T05:14:40;98609.38;;;21.60;100.00
21960;BME280;11144;43.030;25.108;2022-08-21T05:16:14;98613.06;;;21.59;100.00
21960;BME280;11144;43.030;25.108;2022-08-21T05:18:09;98611.63;;;21.55;100.00
21960;BME280;11144;43.030;25.108;2022-08-21T05:19:43;98617.03;;;21.55;100.00
21960;BME280;11144;43.030;25.108;2022-08-21T05:21:16;98607.66;;;21.59;100.00
21960;BME280;11144;43.030;25.108;2022-08-21T05:22:49;98609.09;;;21.63;100.00
21960;BME280;11144;43.030;25.108;2022-08-21T05:24:23;98619.28;;;21.69;100.00
21960;BME280;11144;43.030;25.108;2022-08-21T05:25:55;98615.06;;;21.66;100.00
21960;BME280;11144;43.030;25.108;2022-08-21T05:27:29;98619.28;;;21.69;100.00
21960;BME280;11144;43.030;25.108;2022-08-21T05:29:02;98614.59;;;21.71;100.00
21960;BME280;11144;43.030;25.108;2022-08-21T05:30:41;98609.97;;;21.73;100.00
21960;BME280;11144;43.030;25.108;2022-08-21T05:32:14;98609.69;;;21.76;100.00
21960;BME280;11144;43.030;25.108;2022-08-21T05:33:49;98605.72;;;21.80;100.00
21960;BME280;11144;43.030;25.108;2022-08-21T05:35:23;98613.38;;;21.84;100.00
21960;BME280;11144;43.030;25.108;2022-08-21T05:36:56;98615.94;;;21.86;100.00
21960;BME280;11144;43.030;25.108;2022-08-21T05:38:33;98623.44;;;21.92;100.00
21960;BME280;11144;43.030;25.108;2022-08-21T05:40:07;98604.84;;;21.98;100.00
21960;BME280;11144;43.030;25.108;2022-08-21T05:41:53;98613.63;;;22.10;100.00
21960;BME280;11144;43.030;25.108;2022-08-21T05:43:26;98610.94;;;22.10;100.00
21960;BME280;11144;43.030;25.108;2022-08-21T05:45:00;98617.03;;;22.12;100.00
21960;BME280;11144;43.030;25.108;2022-08-21T05:46:33;98620.72;;;22.11;100.00
21960;BME280;11144;43.030;25.108;2022-08-21T05:48:07;98619.03;;;22.10;100.00
21960;BME280;11144;43.030;25.108;2022-08-21T05:49:41;98628.09;;;22.09;100.00
21960;BME280;11144;43.030;25.108;2022-08-21T05:51:15;98622.44;;;22.12;100.00
21960;BME280;11144;43.030;25.108;2022-08-21T05:52:49;98629.78;;;22.10;100.00
21960;BME280;11144;43.030;25.108;2022-08-21T05:54:27;98633.50;;;22.09;100.00
21960;BME280;11144;43.030;25.108;2022-08-21T05:56:01;98639.84;;;22.08;100.00
21960;BME280;11144;43.030;25.108;2022-08-21T05:57:35;98640.56;;;22.00;100.00
21960;BME280;11144;43.030;25.108;2022-08-21T05:59:12;98639.72;;;22.00;100.00
21960;BME280;11144;43.030;25.108;2022-08-21T06:00:47;98644.41;;;21.98;100.00
21960;BME280;11144;43.030;25.108;2022-08-21T06:02:21;98634.91;;;21.94;100.00
21960;BME280;11144;43.030;25.108;2022-08-21T06:03:54;98643.13;;;22.02;100.00
21960;BME280;11144;43.030;25.108;2022-08-21T06:05:30;98640.84;;;22.07;100.00
21960;BME280;11144;43.030;25.108;2022-08-21T06:07:08;98644.94;;;22.11;100.00
21960;BME280;11144;43.030;25.108;2022-08-21T06:08:41;98640.16;;;22.14;100.00
21960;BME280;11144;43.030;25.108;2022-08-21T06:10:15;98645.41;;;22.16;100.00
21960;BME280;11144;43.030;25.108;2022-08-21T06:11:48;98652.06;;;22.21;100.00
21960;BME280;11144;43.030;25.108;2022-08-21T06:13:22;98640.84;;;22.16;100.00
21960;BME280;11144;43.030;25.108;2022-08-21T06:14:55;98659.13;;;22.22;100.00
21960;BME280;11144;43.030;25.108;2022-08-21T06:16:28;98655.00;;;22.28;100.00
21960;BME280;11144;43.030;25.108;2022-08-21T06:18:02;98659.25;;;22.30;100.00
21960;BME280;11144;43.030;25.108;2022-08-21T06:19:36;98648.63;;;22.29;100.00
21960;BME280;11144;43.030;25.108;2022-08-21T06:21:11;98656.41;;;22.32;100.00
21960;BME280;11144;43.030;25.108;2022-08-21T06:22:45;98661.53;;;22.35;100.00
21960;BME280;11144;43.030;25.108;2022-08-21T06:24:18;98657.81;;;22.36;100.00
21960;BME280;11144;43.030;25.108;2022-08-21T06:25:52;98661.38;;;22.36;100.00
21960;BME280;11144;43.030;25.108;2022-08-21T06:27:27;98660.94;;;22.41;100.00
21960;BME280;11144;43.030;25.108;2022-08-21T06:29:01;98667.19;;;22.51;100.00
21960;BME280;11144;43.030;25.108;2022-08-21T06:30:37;98658.81;;;22.54;100.00
21960;BME280;11144;43.030;25.108;2022-08-21T06:32:11;98640.53;;;22.48;100.00
21960;BME280;11144;43.030;25.108;2022-08-21T06:33:47;98662.63;;;22.61;100.00
21960;BME280;11144;43.030;25.108;2022-08-21T06:35:21;98654.81;;;22.58;100.00
21960;BME280;11144;43.030;25.108;2022-08-21T06:36:56;98650.44;;;22.57;100.00
21960;BME280;11144;43.030;25.108;2022-08-21T06:38:29;98648.44;;;22.59;100.00
21960;BME280;11144;43.030;25.108;2022-08-21T06:40:04;98648.16;;;22.62;100.00
21960;BME280;11144;43.030;25.108;2022-08-21T06:41:43;98654.94;;;22.66;100.00
21960;BME280;11144;43.030;25.108;2022-08-21T06:43:18;98658.06;;;22.71;100.00
21960;BME280;11144;43.030;25.108;2022-08-21T06:45:01;98650.38;;;22.76;100.00
21960;BME280;11144;43.030;25.108;2022-08-21T06:46:35;98643.41;;;22.83;100.00
21960;BME280;11144;43.030;25.108;2022-08-21T06:48:09;98635.69;;;22.88;100.00
21960;BME280;11144;43.030;25.108;2022-08-21T06:49:49;98640.66;;;22.92;100.00
21960;BME280;11144;43.030;25.108;2022-08-21T06:51:23;98635.78;;;22.96;100.00
21960;BME280;11144;43.030;25.108;2022-08-21T06:53:09;98630.97;;;22.99;100.00
21960;BME280;11144;43.030;25.108;2022-08-21T06:54:42;98628.41;;;22.98;100.00
21960;BME280;11144;43.030;25.108;2022-08-21T06:56:16;98625.63;;;22.90;100.00
21960;BME280;11144;43.030;25.108;2022-08-21T06:57:49;98624.47;;;22.92;100.00
21960;BME280;11144;43.030;25.108;2022-08-21T06:59:23;98627.03;;;22.94;100.00
21960;BME280;11144;43.030;25.108;2022-08-21T07:00:57;98619.63;;;22.96;100.00
21960;BME280;11144;43.030;25.108;2022-08-21T07:02:32;98621.34;;;22.97;100.00
21960;BME280;11144;43.030;25.108;2022-08-21T07:04:06;98628.41;;;22.98;100.00
21960;BME280;11144;43.030;25.108;2022-08-21T07:05:39;98619.47;;;22.97;100.00
21960;BME280;11144;43.030;25.108;2022-08-21T07:07:13;98616.19;;;23.03;100.00
21960;BME280;11144;43.030;25.108;2022-08-21T07:08:48;98621.81;;;23.10;100.00
21960;BME280;11144;43.030;25.108;2022-08-21T07:10:22;98621.53;;;23.13;100.00
21960;BME280;11144;43.030;25.108;2022-08-21T07:11:56;98621.22;;;23.16;100.00
21960;BME280;11144;43.030;25.108;2022-08-21T07:13:30;98622.34;;;23.23;100.00
21960;BME280;11144;43.030;25.108;2022-08-21T07:15:04;98621.06;;;23.27;100.00
21960;BME280;11144;43.030;25.108;2022-08-21T07:16:37;98622.75;;;23.28;100.00
21960;BME280;11144;43.030;25.108;2022-08-21T07:18:14;98624.13;;;23.32;100.00
21960;BME280;11144;43.030;25.108;2022-08-21T07:19:48;98624.56;;;23.37;100.00
21960;BME280;11144;43.030;25.108;2022-08-21T07:21:23;98623.31;;;23.32;100.00
21960;BME280;11144;43.030;25.108;2022-08-21T07:22:58;98624.06;;;23.24;100.00
21960;BME280;11144;43.030;25.108;2022-08-21T07:24:34;98620.22;;;23.17;100.00
21960;BME280;11144;43.030;25.108;2022-08-21T07:26:07;98625.75;;;23.25;100.00
21960;BME280;11144;43.030;25.108;2022-08-21T07:27:41;98626.84;;;23.32;100.00
21960;BME280;11144;43.030;25.108;2022-08-21T07:29:13;98630.34;;;23.42;100.00
21960;BME280;11144;43.030;25.108;2022-08-21T07:30:50;98625.31;;;23.47;100.00
21960;BME280;11144;43.030;25.108;2022-08-21T07:32:24;98621.88;;;23.55;100.00
21960;BME280;11144;43.030;25.108;2022-08-21T07:33:58;98620.69;;;23.57;100.00
21960;BME280;11144;43.030;25.108;2022-08-21T07:35:31;98628.34;;;23.62;100.00
21960;BME280;11144;43.030;25.108;2022-08-21T07:37:05;98626.88;;;23.67;100.00
21960;BME280;11144;43.030;25.108;2022-08-21T07:38:41;98625.09;;;23.76;100.00
21960;BME280;11144;43.030;25.108;2022-08-21T07:40:16;98621.94;;;23.80;100.00
21960;BME280;11144;43.030;25.108;2022-08-21T07:41:50;98624.69;;;23.88;100.00
21960;BME280;11144;43.030;25.108;2022-08-21T07:43:24;98625.16;;;23.93;100.00
21960;BME280;11144;43.030;25.108;2022-08-21T07:44:58;98609.34;;;23.89;100.00
21960;BME280;11144;43.030;25.108;2022-08-21T07:46:31;98615.47;;;23.91;100.00
21960;BME280;11144;43.030;25.108;2022-08-21T07:48:04;98626.84;;;23.94;100.00
21960;BME280;11144;43.030;25.108;2022-08-21T07:49:38;98621.78;;;23.99;100.00
21960;BME280;11144;43.030;25.108;2022-08-21T07:51:13;98616.09;;;24.02;100.00
21960;BME280;11144;43.030;25.108;2022-08-21T07:52:47;98609.00;;;24.01;100.00
21960;BME280;11144;43.030;25.108;2022-08-21T07:54:20;98617.47;;;24.06;100.00
21960;BME280;11144;43.030;25.108;2022-08-21T07:56:07;98621.19;;;24.05;100.00
21960;BME280;11144;43.030;25.108;2022-08-21T07:57:43;98617.16;;;24.09;100.00
21960;BME280;11144;43.030;25.108;2022-08-21T07:59:16;98609.00;;;24.01;100.00
21960;BME280;11144;43.030;25.108;2022-08-21T08:00:50;98598.03;;;23.85;100.00
21960;BME280;11144;43.030;25.108;2022-08-21T08:02:24;98609.00;;;24.01;100.00
21960;BME280;11144;43.030;25.108;2022-08-21T08:03:58;98619.88;;;24.09;100.00
21960;BME280;11144;43.030;25.108;2022-08-21T08:05:32;98611.44;;;24.12;100.00
21960;BME280;11144;43.030;25.108;2022-08-21T08:07:08;98613.13;;;24.13;100.00
21960;BME280;11144;43.030;25.108;2022-08-21T08:08:42;98613.13;;;24.13;100.00